Time;durP1;ratioP1;P1;durP2;ratioP2;P2;SDS_P1;SDS_P2;PMS_P1;PMS_P2;Temp;Humidity;BMP_temperature;BMP_pressure;BME280_temperature;BME280_humidity;BME280_pressure;Samples;Min_cycle;Max_cycle;Signal;HPM_P1;HPM_P2
2023/01/29 00:01:49;;;;;;;15.13;13.43;;;;;;;;;;4978143;28;20245;-79
2023/01/29 00:04:19;;;;;;;14.93;13.53;;;;;;;;;;5003469;28;20217;-81
2023/01/29 00:06:45;;;;;;;16.30;14.53;;;;;;;;;;4966828;28;20225;-80
2023/01/29 00:09:11;;;;;;;15.57;13.97;;;;;;;;;;4979697;28;20577;-80
2023/01/29 00:11:37;;;;;;;16.17;14.47;;;;;;;;;;4973709;28;20698;-80
2023/01/29 00:14:02;;;;;;;15.40;13.90;;;;;;;;;;4985048;28;20231;-79
2023/01/29 00:16:30;;;;;;;14.23;12.73;;;;;;;;;;4987406;28;20312;-81
2023/01/29 00:18:56;;;;;;;15.63;14.13;;;;;;;;;;5002640;28;20225;-82
2023/01/29 00:21:24;;;;;;;15.97;14.37;;;;;;;;;;4979075;28;20211;-81
2023/01/29 00:23:53;;;;;;;15.30;13.80;;;;;;;;;;5002123;28;20233;-80
2023/01/29 00:26:19;;;;;;;14.97;13.37;;;;;;;;;;4987690;28;20213;-80
2023/01/29 00:28:49;;;;;;;14.40;12.90;;;;;;;;;;4967248;28;20245;-80
2023/01/29 00:31:19;;;;;;;15.00;13.50;;;;;;;;;;4948366;28;20241;-79
2023/01/29 00:33:44;;;;;;;16.70;13.83;;;;;;;;;;4989806;28;20237;-80
2023/01/29 00:36:14;;;;;;;14.17;12.90;;;;;;;;;;4961464;28;20223;-80
2023/01/29 00:38:39;;;;;;;16.07;14.40;;;;;;;;;;4987752;28;20312;-80
2023/01/29 00:46:43;;;;;;;15.73;13.77;;;;;;;;;;4993410;28;20256;-82
2023/01/29 00:49:09;;;;;;;15.10;13.70;;;;;;;;;;4965309;28;20213;-82
2023/01/29 00:51:35;;;;;;;17.50;14.93;;;;;;;;;;4959563;28;20231;-82
2023/01/29 00:54:00;;;;;;;15.10;13.60;;;;;;;;;;4972614;28;20244;-83
2023/01/29 00:56:28;;;;;;;15.17;13.67;;;;;;;;;;4962999;28;20217;-81
2023/01/29 00:58:56;;;;;;;16.20;14.50;;;;;;;;;;4979407;28;20233;-82
2023/01/29 01:04:07;;;;;;;15.80;14.17;;;;;;;;;;4979060;28;20221;-82
2023/01/29 01:06:41;;;;;;;15.77;14.27;;;;;;;;;;4951100;28;20702;-82
2023/01/29 01:11:50;;;;;;;16.63;14.30;;;;;;;;;;4970872;28;20308;-82
2023/01/29 01:14:19;;;;;;;15.13;13.73;;;;;;;;;;4990711;28;20309;-82
2023/01/29 01:16:45;;;;;;;15.67;14.07;;;;;;;;;;4978158;28;20244;-82
2023/01/29 01:19:14;;;;;;;15.83;14.13;;;;;;;;;;4943567;28;20217;-81
2023/01/29 01:21:44;;;;;;;15.87;14.27;;;;;;;;;;4985539;28;20225;-82
2023/01/29 01:24:10;;;;;;;15.03;13.60;;;;;;;;;;4972232;28;20220;-81
2023/01/29 01:26:38;;;;;;;15.57;14.07;;;;;;;;;;4986915;28;20229;-82
2023/01/29 01:29:04;;;;;;;16.40;14.33;;;;;;;;;;4970135;28;20425;-83
2023/01/29 01:31:32;;;;;;;15.87;14.33;;;;;;;;;;4963002;28;20292;-83
2023/01/29 01:33:58;;;;;;;14.70;13.30;;;;;;;;;;4994765;28;20233;-82
2023/01/29 01:36:24;;;;;;;16.07;14.40;;;;;;;;;;4970174;28;20300;-83
2023/01/29 01:38:50;;;;;;;16.37;14.60;;;;;;;;;;4981687;28;20336;-82
2023/01/29 01:41:19;;;;;;;15.50;14.00;;;;;;;;;;4987220;28;20222;-81
2023/01/29 01:43:52;;;;;;;15.40;13.90;;;;;;;;;;4936471;28;20264;-83
2023/01/29 01:46:18;;;;;;;14.67;13.27;;;;;;;;;;4950887;28;20706;-82
2023/01/29 01:48:44;;;;;;;15.33;13.80;;;;;;;;;;4956857;28;20229;-82
2023/01/29 01:51:09;;;;;;;14.43;13.03;;;;;;;;;;4970999;28;20307;-82
2023/01/29 01:53:43;;;;;;;15.03;13.53;;;;;;;;;;4967239;28;20602;-83
2023/01/29 01:56:13;;;;;;;14.73;13.23;;;;;;;;;;5006281;28;20299;-82
2023/01/29 01:58:46;;;;;;;15.30;13.70;;;;;;;;;;4941674;28;20703;-82
2023/01/29 02:01:12;;;;;;;16.77;14.70;;;;;;;;;;4972646;28;20275;-82
2023/01/29 02:09:32;;;;;;;14.13;12.67;;;;;;;;;;4973685;28;20308;-82
2023/01/29 02:11:58;;;;;;;15.33;13.73;;;;;;;;;;4971290;28;20243;-82
2023/01/29 02:14:24;;;;;;;15.97;14.37;;;;;;;;;;4979549;28;20225;-82
2023/01/29 02:16:49;;;;;;;15.37;13.97;;;;;;;;;;4977772;28;20284;-81
2023/01/29 02:19:21;;;;;;;15.30;13.80;;;;;;;;;;4961928;28;20233;-83
2023/01/29 02:21:51;;;;;;;14.53;13.13;;;;;;;;;;4949503;28;20229;-83
2023/01/29 02:24:34;;;;;;;15.93;14.10;;;;;;;;;;4994173;28;20225;-83
2023/01/29 02:27:03;;;;;;;15.53;14.07;;;;;;;;;;4996722;28;20213;-83
2023/01/29 02:29:47;;;;;;;16.80;14.13;;;;;;;;;;5010397;28;20233;-83
2023/01/29 02:32:25;;;;;;;16.67;13.30;;;;;;;;;;4981408;28;20237;-83
2023/01/29 02:35:29;;;;;;;15.67;13.80;;;;;;;;;;4994353;28;20263;-82
2023/01/29 02:38:19;;;;;;;15.90;14.20;;;;;;;;;;4974210;28;20658;-82
2023/01/29 02:41:09;;;;;;;15.43;13.67;;;;;;;;;;5008545;28;20232;-82
2023/01/29 02:43:40;;;;;;;15.80;14.10;;;;;;;;;;5012941;28;20636;-83
2023/01/29 02:46:23;;;;;;;15.00;13.57;;;;;;;;;;5027681;28;20572;-81
2023/01/29 02:49:10;;;;;;;15.20;13.70;;;;;;;;;;4985302;28;20226;-84
2023/01/29 02:51:41;;;;;;;15.03;13.53;;;;;;;;;;4982438;28;20245;-84
2023/01/29 02:54:20;;;;;;;15.67;14.07;;;;;;;;;;5002203;28;20226;-82
2023/01/29 02:57:06;;;;;;;15.80;14.20;;;;;;;;;;4966935;28;20393;-83
2023/01/29 02:59:39;;;;;;;15.23;13.63;;;;;;;;;;4990028;28;20241;-84
2023/01/29 03:02:11;;;;;;;14.40;13.00;;;;;;;;;;4985489;28;20264;-83
2023/01/29 03:04:42;;;;;;;15.77;14.20;;;;;;;;;;4990170;28;20710;-83
2023/01/29 03:07:41;;;;;;;16.07;14.37;;;;;;;;;;4984519;28;20260;-83
2023/01/29 03:09:58;;;;;;;17.73;13.13;;;;;;;;;;5002129;28;20594;-84
2023/01/29 03:12:32;;;;;;;16.80;15.10;;;;;;;;;;5003187;28;20221;-83
2023/01/29 03:15:15;;;;;;;15.93;14.23;;;;;;;;;;5002266;28;20236;-82
2023/01/29 03:17:56;;;;;;;15.17;13.57;;;;;;;;;;5012401;28;20235;-81
2023/01/29 03:20:28;;;;;;;15.13;13.70;;;;;;;;;;5010170;28;20252;-82
2023/01/29 03:23:00;;;;;;;15.37;13.83;;;;;;;;;;4999054;28;20708;-82
2023/01/29 03:34:15;;;;;;;16.40;14.73;;;;;;;;;;4963159;28;20309;-81
2023/01/29 03:36:44;;;;;;;16.07;14.53;;;;;;;;;;4979231;28;20596;-81
2023/01/29 03:39:11;;;;;;;15.23;13.67;;;;;;;;;;4984183;28;20236;-85
2023/01/29 03:41:39;;;;;;;15.53;13.90;;;;;;;;;;4974555;28;20228;-83
2023/01/29 03:44:26;;;;;;;15.30;13.80;;;;;;;;;;5007889;28;20218;-80
2023/01/29 03:46:55;;;;;;;15.87;14.37;;;;;;;;;;5024252;28;20229;-82
2023/01/29 03:49:29;;;;;;;16.10;14.57;;;;;;;;;;4979387;28;20232;-80
2023/01/29 03:52:01;;;;;;;15.30;13.90;;;;;;;;;;4981319;28;20237;-83
2023/01/29 03:54:49;;;;;;;15.50;13.77;;;;;;;;;;4980936;28;20708;-82
2023/01/29 03:57:27;;;;;;;15.80;14.20;;;;;;;;;;4993036;28;20222;-82
2023/01/29 04:00:11;;;;;;;15.70;14.30;;;;;;;;;;5030214;28;20320;-80
2023/01/29 04:03:14;;;;;;;15.63;14.10;;;;;;;;;;4982404;28;20217;-81
2023/01/29 04:05:47;;;;;;;15.23;13.73;;;;;;;;;;4973593;28;20276;-81
2023/01/29 04:08:23;;;;;;;15.77;14.37;;;;;;;;;;5007732;28;20220;-83
2023/01/29 04:10:49;;;;;;;15.67;14.13;;;;;;;;;;4976492;28;20638;-83
2023/01/29 04:13:15;;;;;;;16.50;15.00;;;;;;;;;;4979424;28;20213;-80
2023/01/29 04:15:48;;;;;;;15.83;14.33;;;;;;;;;;4974082;28;20250;-83
2023/01/29 04:18:14;;;;;;;17.50;15.57;;;;;;;;;;4980583;28;20256;-81
2023/01/29 04:21:06;;;;;;;16.80;15.20;;;;;;;;;;4984634;28;20232;-83
2023/01/29 04:23:34;;;;;;;16.50;14.80;;;;;;;;;;4980389;28;20225;-79
2023/01/29 04:26:11;;;;;;;16.17;14.43;;;;;;;;;;5002820;28;20222;-83
2023/01/29 04:28:53;;;;;;;16.57;14.97;;;;;;;;;;4991929;28;20226;-81
2023/01/29 04:31:22;;;;;;;16.10;14.50;;;;;;;;;;4989188;28;20580;-81
2023/01/29 04:34:06;;;;;;;16.47;14.80;;;;;;;;;;4979241;28;20222;-80
2023/01/29 04:36:56;;;;;;;15.43;13.90;;;;;;;;;;5018853;28;20686;-84
2023/01/29 04:39:30;;;;;;;16.23;14.63;;;;;;;;;;5013976;28;20284;-80
2023/01/29 04:42:28;;;;;;;16.97;15.27;;;;;;;;;;4981847;28;20221;-82
2023/01/29 04:45:01;;;;;;;17.03;15.27;;;;;;;;;;4981110;28;20268;-80
2023/01/29 04:47:45;;;;;;;16.73;15.03;;;;;;;;;;5006894;28;20221;-80
2023/01/29 04:50:15;;;;;;;15.20;13.73;;;;;;;;;;4992730;28;20287;-80
2023/01/29 04:52:51;;;;;;;16.97;15.30;;;;;;;;;;4997357;28;20686;-80
2023/01/29 04:55:17;;;;;;;16.37;14.67;;;;;;;;;;4992355;28;20221;-80
2023/01/29 04:58:03;;;;;;;16.87;15.10;;;;;;;;;;5009089;28;20305;-80
2023/01/29 05:00:31;;;;;;;16.03;14.53;;;;;;;;;;4987604;28;20284;-80
2023/01/29 05:03:02;;;;;;;16.93;15.27;;;;;;;;;;4976868;28;20276;-81
2023/01/29 05:05:30;;;;;;;18.23;15.03;;;;;;;;;;4943836;28;20225;-81
2023/01/29 05:07:56;;;;;;;15.77;14.27;;;;;;;;;;4984497;28;20226;-80
2023/01/29 05:10:21;;;;;;;17.03;15.13;;;;;;;;;;4962694;28;20221;-81
2023/01/29 05:12:52;;;;;;;17.43;15.73;;;;;;;;;;4985939;28;20227;-79
2023/01/29 05:15:25;;;;;;;17.73;15.23;;;;;;;;;;4964626;28;20226;-82
2023/01/29 05:17:52;;;;;;;16.43;14.83;;;;;;;;;;4964587;28;20707;-81
2023/01/29 05:20:18;;;;;;;16.23;14.53;;;;;;;;;;4964291;28;20585;-79
2023/01/29 05:22:43;;;;;;;16.53;14.83;;;;;;;;;;4973274;28;20232;-81
2023/01/29 05:25:19;;;;;;;16.37;14.73;;;;;;;;;;4995845;28;20217;-81
2023/01/29 05:30:30;;;;;;;18.63;15.23;;;;;;;;;;4965003;28;20226;-81
2023/01/29 05:32:58;;;;;;;16.27;14.67;;;;;;;;;;4970376;28;20276;-80
2023/01/29 05:35:24;;;;;;;16.17;14.53;;;;;;;;;;4979721;28;20221;-81
2023/01/29 05:37:52;;;;;;;17.10;15.40;;;;;;;;;;4970289;28;20319;-80
2023/01/29 05:40:18;;;;;;;17.90;16.13;;;;;;;;;;4992313;28;20221;-80
2023/01/29 05:42:43;;;;;;;17.90;16.10;;;;;;;;;;4998929;28;20252;-80
2023/01/29 05:45:12;;;;;;;17.27;15.47;;;;;;;;;;4969435;28;20236;-81
2023/01/29 05:47:38;;;;;;;16.90;15.17;;;;;;;;;;4979965;28;20245;-80
2023/01/29 05:50:05;;;;;;;17.27;15.57;;;;;;;;;;4963733;28;20241;-81
2023/01/29 05:52:30;;;;;;;17.03;15.40;;;;;;;;;;4976307;28;20273;-81
2023/01/29 05:54:56;;;;;;;16.57;14.90;;;;;;;;;;4990972;28;20229;-81
2023/01/29 05:57:21;;;;;;;17.60;15.87;;;;;;;;;;4968511;28;20233;-82
2023/01/29 05:59:49;;;;;;;16.40;14.80;;;;;;;;;;4954164;28;20814;-84
2023/01/29 06:02:15;;;;;;;16.67;15.17;;;;;;;;;;4982810;28;20224;-83
2023/01/29 06:04:40;;;;;;;17.43;15.67;;;;;;;;;;4975918;28;20229;-84
2023/01/29 06:07:06;;;;;;;17.50;15.80;;;;;;;;;;4979326;28;20213;-84
2023/01/29 06:09:31;;;;;;;18.13;16.33;;;;;;;;;;4976177;28;20274;-83
2023/01/29 06:12:02;;;;;;;17.00;15.27;;;;;;;;;;4961276;28;20222;-83
2023/01/29 06:14:28;;;;;;;17.77;15.97;;;;;;;;;;4980973;28;20612;-84
2023/01/29 06:16:55;;;;;;;16.40;14.83;;;;;;;;;;4957533;28;20218;-85
2023/01/29 06:19:23;;;;;;;17.17;15.53;;;;;;;;;;4977293;28;20278;-85
2023/01/29 06:21:51;;;;;;;17.17;15.57;;;;;;;;;;4975940;28;20655;-85
2023/01/29 06:24:17;;;;;;;18.27;16.33;;;;;;;;;;4972525;28;20217;-85
2023/01/29 06:26:45;;;;;;;17.30;15.50;;;;;;;;;;4975642;28;20225;-85
2023/01/29 06:29:15;;;;;;;17.17;15.37;;;;;;;;;;4978455;28;20222;-85
2023/01/29 06:31:41;;;;;;;18.20;15.80;;;;;;;;;;4971069;28;20253;-84
2023/01/29 06:34:12;;;;;;;17.97;15.87;;;;;;;;;;4974121;28;20225;-83
2023/01/29 06:36:37;;;;;;;17.63;15.83;;;;;;;;;;4976053;28;20237;-85
2023/01/29 06:39:03;;;;;;;19.30;16.43;;;;;;;;;;4966235;28;20244;-84
2023/01/29 06:41:29;;;;;;;18.73;16.83;;;;;;;;;;4965999;28;20705;-84
2023/01/29 06:43:54;;;;;;;21.87;17.07;;;;;;;;;;4991499;28;20228;-85
2023/01/29 06:46:22;;;;;;;19.07;17.10;;;;;;;;;;4965789;28;20225;-85
2023/01/29 06:48:49;;;;;;;18.60;16.77;;;;;;;;;;4943000;28;20277;-85
2023/01/29 06:51:17;;;;;;;18.87;16.87;;;;;;;;;;4990864;28;20297;-85
2023/01/29 06:53:45;;;;;;;20.90;18.37;;;;;;;;;;4956063;28;20285;-86
2023/01/29 06:56:13;;;;;;;19.70;17.70;;;;;;;;;;4991885;28;20228;-84
2023/01/29 06:58:39;;;;;;;19.60;17.40;;;;;;;;;;4964440;28;20236;-84
2023/01/29 07:01:09;;;;;;;18.17;16.37;;;;;;;;;;4993961;28;20214;-84
2023/01/29 07:03:34;;;;;;;18.80;16.90;;;;;;;;;;4958273;28;20312;-86
2023/01/29 07:06:02;;;;;;;18.50;16.60;;;;;;;;;;4988805;28;20820;-84
2023/01/29 07:08:28;;;;;;;18.43;16.53;;;;;;;;;;4983788;28;20260;-84
2023/01/29 07:11:03;;;;;;;19.47;17.40;;;;;;;;;;4984379;28;20242;-85
2023/01/29 07:13:28;;;;;;;18.57;16.60;;;;;;;;;;4964897;28;20695;-84
2023/01/29 07:15:57;;;;;;;19.47;17.53;;;;;;;;;;4973322;28;20226;-83
2023/01/29 07:18:28;;;;;;;19.57;17.57;;;;;;;;;;4967771;28;20225;-83
2023/01/29 07:21:00;;;;;;;21.63;16.90;;;;;;;;;;4982600;28;20253;-85
2023/01/29 07:23:28;;;;;;;19.00;17.00;;;;;;;;;;4983290;28;20225;-84
2023/01/29 07:25:56;;;;;;;19.20;17.13;;;;;;;;;;4953745;28;20297;-84
2023/01/29 07:28:24;;;;;;;19.53;17.27;;;;;;;;;;4969767;28;20900;-87
2023/01/29 07:30:56;;;;;;;21.87;18.90;;;;;;;;;;4981428;28;20237;-84
2023/01/29 07:33:25;;;;;;;20.33;18.17;;;;;;;;;;4958519;28;20232;-85
2023/01/29 07:35:51;;;;;;;19.07;17.07;;;;;;;;;;4981171;28;20221;-85
2023/01/29 07:38:18;;;;;;;19.37;17.47;;;;;;;;;;4984002;28;20217;-84
2023/01/29 07:40:44;;;;;;;19.50;17.43;;;;;;;;;;4954366;28;20233;-84
2023/01/29 07:43:09;;;;;;;19.67;17.77;;;;;;;;;;4988210;28;20222;-85
2023/01/29 07:45:39;;;;;;;20.30;17.80;;;;;;;;;;4969433;28;20232;-86
2023/01/29 07:48:12;;;;;;;18.90;16.93;;;;;;;;;;4958630;28;20218;-86
2023/01/29 07:50:42;;;;;;;20.30;18.03;;;;;;;;;;4971635;28;20260;-82
2023/01/29 07:53:14;;;;;;;21.43;19.20;;;;;;;;;;4988737;28;20224;-82
2023/01/29 07:55:40;;;;;;;21.50;18.33;;;;;;;;;;4987600;28;20280;-81
2023/01/29 07:58:07;;;;;;;19.00;17.27;;;;;;;;;;4997994;28;20229;-82
2023/01/29 08:00:33;;;;;;;24.87;20.70;;;;;;;;;;4974743;28;20308;-82
2023/01/29 08:03:25;;;;;;;24.03;20.27;;;;;;;;;;4979293;28;20244;-83
2023/01/29 08:05:53;;;;;;;20.60;18.00;;;;;;;;;;5006094;28;20232;-82
2023/01/29 08:08:18;;;;;;;20.43;18.23;;;;;;;;;;4966640;28;20772;-81
2023/01/29 08:10:46;;;;;;;20.43;18.27;;;;;;;;;;4964063;28;20230;-83
2023/01/29 08:13:14;;;;;;;23.10;19.73;;;;;;;;;;4984334;28;20222;-82
2023/01/29 08:15:49;;;;;;;20.97;18.77;;;;;;;;;;4993861;28;20272;-82
2023/01/29 08:18:15;;;;;;;21.63;19.40;;;;;;;;;;4996284;28;20218;-82
2023/01/29 08:20:40;;;;;;;21.80;19.70;;;;;;;;;;4977807;28;20221;-82
2023/01/29 08:23:11;;;;;;;24.57;20.47;;;;;;;;;;4984500;28;20602;-84
2023/01/29 08:25:36;;;;;;;23.20;20.80;;;;;;;;;;4945126;28;20217;-85
2023/01/29 08:28:05;;;;;;;21.47;19.30;;;;;;;;;;4941697;28;20256;-85
2023/01/29 08:30:32;;;;;;;23.37;20.87;;;;;;;;;;4962492;28;20229;-87
2023/01/29 08:32:59;;;;;;;24.50;20.87;;;;;;;;;;4948198;28;20240;-86
2023/01/29 08:35:25;;;;;;;23.10;20.63;;;;;;;;;;4969450;28;20780;-86
2023/01/29 08:37:54;;;;;;;24.27;21.73;;;;;;;;;;4965317;28;20217;-88
2023/01/29 08:40:22;;;;;;;26.13;22.73;;;;;;;;;;4974787;28;20213;-86
2023/01/29 08:42:50;;;;;;;26.00;21.13;;;;;;;;;;4986105;28;20225;-82
2023/01/29 08:45:15;;;;;;;26.83;22.43;;;;;;;;;;4981632;28;20228;-83
2023/01/29 08:47:47;;;;;;;27.93;24.63;;;;;;;;;;4978847;28;20225;-82
2023/01/29 08:50:12;;;;;;;37.30;31.83;;;;;;;;;;4993322;28;20217;-83
2023/01/29 08:52:41;;;;;;;33.67;27.47;;;;;;;;;;4972796;28;20232;-83
2023/01/29 08:55:07;;;;;;;32.03;28.60;;;;;;;;;;4963594;28;20222;-82
2023/01/29 08:57:36;;;;;;;26.30;23.40;;;;;;;;;;4962042;28;20801;-83
2023/01/29 09:00:08;;;;;;;28.33;25.33;;;;;;;;;;4974064;28;20248;-82
2023/01/29 09:02:33;;;;;;;27.03;24.37;;;;;;;;;;4961103;28;20903;-81
2023/01/29 09:04:59;;;;;;;25.87;23.13;;;;;;;;;;4973617;28;20312;-82
2023/01/29 09:07:24;;;;;;;27.17;23.57;;;;;;;;;;4957525;28;20249;-82
2023/01/29 09:09:52;;;;;;;26.50;23.63;;;;;;;;;;4969615;28;20214;-81
2023/01/29 09:12:18;;;;;;;27.50;23.17;;;;;;;;;;5007426;28;20228;-83
2023/01/29 09:14:46;;;;;;;25.90;23.00;;;;;;;;;;4984134;28;20223;-82
2023/01/29 09:17:16;;;;;;;31.17;23.60;;;;;;;;;;4991858;28;20221;-83
2023/01/29 09:19:44;;;;;;;25.97;23.27;;;;;;;;;;4970147;28;20232;-82
2023/01/29 09:22:09;;;;;;;25.70;23.10;;;;;;;;;;4980881;28;20209;-82
2023/01/29 09:24:35;;;;;;;24.37;21.80;;;;;;;;;;4974668;28;20259;-82
2023/01/29 09:27:00;;;;;;;26.03;22.00;;;;;;;;;;4955054;28;20236;-82
2023/01/29 09:29:30;;;;;;;27.83;24.03;;;;;;;;;;4971776;28;20221;-82
2023/01/29 09:31:56;;;;;;;28.17;24.37;;;;;;;;;;4977794;28;20726;-82
2023/01/29 09:34:21;;;;;;;27.70;23.23;;;;;;;;;;5008758;28;20224;-83
2023/01/29 09:36:47;;;;;;;27.57;24.67;;;;;;;;;;4969626;28;20226;-83
2023/01/29 09:39:12;;;;;;;28.20;23.70;;;;;;;;;;4967365;28;20221;-81
2023/01/29 09:42:20;;;;;;;27.43;24.53;;;;;;;;;;4979847;28;20239;-82
2023/01/29 09:44:55;;;;;;;26.07;23.37;;;;;;;;;;4986697;28;20229;-82
2023/01/29 09:47:22;;;;;;;25.83;23.13;;;;;;;;;;4968312;28;20217;-82
2023/01/29 09:49:57;;;;;;;25.53;22.93;;;;;;;;;;4972168;28;20232;-82
2023/01/29 09:52:49;;;;;;;30.60;24.10;;;;;;;;;;4965642;28;20225;-82
2023/01/29 09:55:28;;;;;;;25.23;22.47;;;;;;;;;;4959066;28;20221;-82
2023/01/29 09:57:58;;;;;;;23.60;21.30;;;;;;;;;;4970036;28;20237;-83
2023/01/29 10:00:35;;;;;;;28.67;22.73;;;;;;;;;;4975901;28;20245;-81
2023/01/29 10:03:17;;;;;;;28.03;23.60;;;;;;;;;;4967969;28;20561;-83
2023/01/29 10:05:59;;;;;;;27.60;23.20;;;;;;;;;;5010387;28;20710;-82
2023/01/29 10:08:45;;;;;;;24.47;21.77;;;;;;;;;;4983469;28;20513;-82
2023/01/29 10:11:22;;;;;;;29.53;22.63;;;;;;;;;;4992041;28;20400;-82
2023/01/29 10:14:44;;;;;;;25.20;22.20;;;;;;;;;;4988242;28;20293;-83
2023/01/29 10:17:26;;;;;;;26.17;23.07;;;;;;;;;;4917908;29;20218;-82
2023/01/29 10:20:37;;;;;;;24.83;22.20;;;;;;;;;;4931144;28;20235;-83
2023/01/29 10:23:08;;;;;;;25.20;21.97;;;;;;;;;;4980238;28;20304;-81
2023/01/29 10:25:36;;;;;;;25.47;22.80;;;;;;;;;;4993406;28;20241;-82
2023/01/29 10:28:10;;;;;;;26.53;21.10;;;;;;;;;;4961489;28;20217;-83
2023/01/29 10:30:42;;;;;;;23.10;20.70;;;;;;;;;;4978970;28;20247;-83
2023/01/29 10:33:12;;;;;;;23.87;21.47;;;;;;;;;;4979205;28;20213;-84
2023/01/29 10:35:48;;;;;;;23.50;21.03;;;;;;;;;;4977875;28;20222;-82
2023/01/29 10:38:29;;;;;;;23.80;19.37;;;;;;;;;;4975526;28;20699;-83
2023/01/29 10:41:10;;;;;;;22.87;20.07;;;;;;;;;;4994751;28;20223;-83
2023/01/29 10:44:06;;;;;;;21.67;19.27;;;;;;;;;;4999301;28;20998;-82
2023/01/29 10:46:37;;;;;;;24.20;18.37;;;;;;;;;;4997000;28;20233;-83
2023/01/29 10:49:18;;;;;;;21.83;19.53;;;;;;;;;;5009963;28;20256;-81
2023/01/29 10:51:58;;;;;;;21.00;18.80;;;;;;;;;;4978639;28;20233;-82
2023/01/29 10:54:36;;;;;;;20.27;18.03;;;;;;;;;;4993820;28;20229;-81
2023/01/29 10:57:20;;;;;;;20.37;18.17;;;;;;;;;;5012295;28;20308;-82
2023/01/29 11:00:01;;;;;;;21.17;18.90;;;;;;;;;;5027577;28;20730;-82
2023/01/29 11:02:26;;;;;;;19.67;17.47;;;;;;;;;;4969550;28;20276;-81
2023/01/29 11:04:52;;;;;;;20.90;18.70;;;;;;;;;;4979721;28;20259;-81
2023/01/29 11:07:22;;;;;;;19.87;17.77;;;;;;;;;;4970384;28;20210;-82
2023/01/29 11:10:01;;;;;;;20.77;17.33;;;;;;;;;;4986112;28;20249;-82
2023/01/29 11:12:32;;;;;;;19.77;17.67;;;;;;;;;;4973917;28;20221;-82
2023/01/29 11:15:19;;;;;;;19.13;16.57;;;;;;;;;;4985955;28;20324;-80
2023/01/29 11:18:19;;;;;;;20.37;18.20;;;;;;;;;;4967339;28;20695;-82
2023/01/29 11:20:45;;;;;;;22.13;17.37;;;;;;;;;;4961166;28;20226;-82
2023/01/29 11:23:27;;;;;;;19.53;17.53;;;;;;;;;;4967628;28;20226;-80
2023/01/29 11:25:54;;;;;;;18.67;16.80;;;;;;;;;;4994652;28;20229;-82
2023/01/29 11:28:39;;;;;;;19.27;16.30;;;;;;;;;;4996632;28;20213;-81
2023/01/29 11:31:24;;;;;;;18.83;16.93;;;;;;;;;;4994392;28;20686;-80
2023/01/29 11:33:52;;;;;;;17.40;15.40;;;;;;;;;;4939474;28;20224;-81
2023/01/29 11:36:39;;;;;;;19.50;16.73;;;;;;;;;;4994277;28;20284;-81
2023/01/29 11:39:07;;;;;;;16.53;14.83;;;;;;;;;;4960777;28;20239;-80
2023/01/29 11:41:42;;;;;;;18.90;16.93;;;;;;;;;;5007137;28;20312;-82
2023/01/29 11:44:20;;;;;;;19.60;17.53;;;;;;;;;;4987090;28;20221;-80
2023/01/29 11:46:45;;;;;;;19.87;17.80;;;;;;;;;;4981893;28;20229;-80
2023/01/29 11:49:25;;;;;;;22.10;18.90;;;;;;;;;;4999682;28;20237;-81
2023/01/29 11:51:54;;;;;;;18.47;16.50;;;;;;;;;;4987560;28;20336;-78
2023/01/29 11:54:19;;;;;;;18.83;16.83;;;;;;;;;;4994080;28;20233;-80
2023/01/29 11:56:47;;;;;;;22.20;19.87;;;;;;;;;;4991638;28;20221;-80
2023/01/29 11:59:47;;;;;;;19.60;17.50;;;;;;;;;;5002135;28;20301;-79
2023/01/29 12:02:30;;;;;;;18.07;16.10;;;;;;;;;;4985371;28;20217;-79
2023/01/29 12:05:14;;;;;;;20.00;17.80;;;;;;;;;;4985093;28;20582;-80
2023/01/29 12:07:41;;;;;;;18.27;16.47;;;;;;;;;;4988470;28;20244;-81
2023/01/29 12:10:34;;;;;;;29.53;23.53;;;;;;;;;;4944895;28;20221;-81
2023/01/29 12:13:09;;;;;;;29.73;24.77;;;;;;;;;;5003489;28;20254;-81
2023/01/29 12:15:35;;;;;;;20.83;18.60;;;;;;;;;;4997871;28;20232;-80
2023/01/29 12:18:19;;;;;;;26.50;22.07;;;;;;;;;;4956087;28;20226;-81
2023/01/29 12:20:55;;;;;;;38.57;31.33;;;;;;;;;;4981306;28;20370;-82
2023/01/29 12:23:22;;;;;;;22.70;20.23;;;;;;;;;;4967711;28;20223;-81
2023/01/29 12:26:29;;;;;;;21.13;17.67;;;;;;;;;;4954670;28;20257;-82
2023/01/29 12:29:16;;;;;;;18.70;16.87;;;;;;;;;;4938230;28;20338;-82
2023/01/29 12:31:58;;;;;;;17.37;15.60;;;;;;;;;;4993098;28;20241;-82
2023/01/29 12:34:29;;;;;;;19.10;16.73;;;;;;;;;;4997359;28;20240;-82
2023/01/29 12:37:00;;;;;;;19.47;17.13;;;;;;;;;;4994057;28;20221;-82
2023/01/29 12:39:26;;;;;;;22.40;17.93;;;;;;;;;;4973027;28;20236;-78
2023/01/29 12:42:02;;;;;;;18.17;16.37;;;;;;;;;;4993140;28;20225;-82
2023/01/29 12:44:34;;;;;;;19.50;17.20;;;;;;;;;;4994640;28;20579;-82
2023/01/29 12:47:03;;;;;;;20.43;18.33;;;;;;;;;;4957029;28;20657;-83
2023/01/29 12:49:33;;;;;;;23.43;18.53;;;;;;;;;;4983948;28;20213;-82
2023/01/29 12:52:15;;;;;;;20.83;18.67;;;;;;;;;;4985256;28;20253;-82
2023/01/29 12:54:59;;;;;;;20.47;18.37;;;;;;;;;;5013775;28;20237;-82
2023/01/29 12:57:27;;;;;;;19.37;16.97;;;;;;;;;;4963484;28;20225;-83
2023/01/29 13:00:00;;;;;;;20.00;17.50;;;;;;;;;;4993789;28;20222;-81
2023/01/29 13:02:44;;;;;;;18.87;16.87;;;;;;;;;;4995418;28;20217;-81
2023/01/29 13:05:21;;;;;;;23.37;18.67;;;;;;;;;;4960985;28;20778;-82
2023/01/29 13:07:50;;;;;;;18.73;16.87;;;;;;;;;;5020359;28;20272;-82
2023/01/29 13:10:24;;;;;;;18.73;16.67;;;;;;;;;;4952773;28;20220;-80
2023/01/29 13:13:02;;;;;;;19.27;17.23;;;;;;;;;;4974891;28;20234;-82
2023/01/29 13:15:37;;;;;;;20.00;17.90;;;;;;;;;;4971120;28;20698;-83
2023/01/29 13:18:33;;;;;;;19.00;16.97;;;;;;;;;;4977316;28;20217;-82
2023/01/29 13:20:59;;;;;;;18.23;16.37;;;;;;;;;;4976828;28;20279;-82
2023/01/29 13:23:40;;;;;;;19.40;17.17;;;;;;;;;;4976324;28;20229;-83
2023/01/29 13:26:08;;;;;;;16.90;15.20;;;;;;;;;;4979354;28;20849;-82
2023/01/29 13:28:36;;;;;;;18.67;15.90;;;;;;;;;;4967157;28;20217;-80
2023/01/29 13:31:11;;;;;;;19.20;17.07;;;;;;;;;;4958217;28;20249;-80
2023/01/29 13:33:37;;;;;;;18.17;16.23;;;;;;;;;;4976314;28;20324;-80
2023/01/29 13:36:05;;;;;;;18.33;16.53;;;;;;;;;;4988797;28;20218;-83
2023/01/29 13:38:34;;;;;;;17.47;15.67;;;;;;;;;;4945638;28;20714;-80
2023/01/29 13:41:07;;;;;;;17.97;15.87;;;;;;;;;;4956737;28;20213;-83
2023/01/29 13:43:37;;;;;;;19.47;17.23;;;;;;;;;;4960156;28;20241;-81
2023/01/29 13:46:13;;;;;;;18.67;16.77;;;;;;;;;;4968398;28;20221;-81
2023/01/29 13:48:45;;;;;;;19.43;17.40;;;;;;;;;;4950490;28;20233;-79
2023/01/29 13:51:15;;;;;;;18.97;16.97;;;;;;;;;;4987939;28;20908;-81
2023/01/29 13:53:41;;;;;;;18.97;17.07;;;;;;;;;;4972790;28;20229;-81
2023/01/29 13:56:27;;;;;;;19.67;17.00;;;;;;;;;;4997171;28;20214;-82
2023/01/29 13:58:53;;;;;;;18.50;16.53;;;;;;;;;;4997258;28;20229;-80
2023/01/29 14:01:45;;;;;;;17.80;15.87;;;;;;;;;;4960766;28;20213;-80
2023/01/29 14:04:17;;;;;;;19.00;17.20;;;;;;;;;;4969339;28;20233;-81
2023/01/29 14:06:47;;;;;;;18.97;16.97;;;;;;;;;;4972234;28;20320;-83
2023/01/29 14:09:36;;;;;;;19.17;16.40;;;;;;;;;;4964567;28;20217;-81
2023/01/29 14:12:22;;;;;;;18.93;16.93;;;;;;;;;;4993872;28;20221;-84
2023/01/29 14:14:48;;;;;;;19.60;17.63;;;;;;;;;;4985965;28;20268;-81
2023/01/29 14:17:18;;;;;;;20.67;18.40;;;;;;;;;;5012697;28;20845;-84
2023/01/29 14:20:16;;;;;;;23.67;19.20;;;;;;;;;;4981011;28;20221;-82
2023/01/29 14:22:42;;;;;;;20.93;18.73;;;;;;;;;;4983871;28;20239;-82
2023/01/29 14:25:18;;;;;;;21.73;19.43;;;;;;;;;;4988639;28;20221;-84
2023/01/29 14:27:47;;;;;;;20.67;18.47;;;;;;;;;;4982780;28;20225;-83
2023/01/29 14:30:18;;;;;;;22.17;19.87;;;;;;;;;;4986564;28;20228;-83
2023/01/29 14:32:50;;;;;;;20.47;18.43;;;;;;;;;;4975832;28;20280;-82
2023/01/29 14:35:21;;;;;;;22.13;19.67;;;;;;;;;;4997207;28;20705;-82
2023/01/29 14:37:51;;;;;;;20.60;18.47;;;;;;;;;;4981741;28;20760;-83
2023/01/29 14:40:16;;;;;;;22.33;20.13;;;;;;;;;;4977091;28;20217;-82
2023/01/29 14:43:06;;;;;;;21.47;19.30;;;;;;;;;;5016206;28;20225;-82
2023/01/29 14:45:35;;;;;;;24.57;20.60;;;;;;;;;;5018703;28;20249;-81
2023/01/29 14:48:10;;;;;;;22.97;19.70;;;;;;;;;;4977959;28;20854;-82
2023/01/29 14:50:39;;;;;;;22.30;18.93;;;;;;;;;;5003967;28;20229;-84
2023/01/29 14:53:24;;;;;;;21.50;19.20;;;;;;;;;;4999399;28;20288;-83
2023/01/29 14:56:09;;;;;;;23.00;20.03;;;;;;;;;;4980038;28;20229;-83
2023/01/29 14:58:48;;;;;;;21.43;18.30;;;;;;;;;;4965266;28;20777;-82
2023/01/29 15:01:22;;;;;;;22.07;19.30;;;;;;;;;;4980129;28;20575;-83
2023/01/29 15:04:04;;;;;;;22.37;20.00;;;;;;;;;;4979862;28;20372;-81
2023/01/29 15:06:42;;;;;;;23.87;20.23;;;;;;;;;;4960041;28;20233;-82
2023/01/29 15:09:25;;;;;;;19.57;17.57;;;;;;;;;;4951204;28;20217;-80
2023/01/29 15:11:57;;;;;;;22.23;19.10;;;;;;;;;;5016368;28;20233;-83
2023/01/29 15:14:32;;;;;;;23.77;19.33;;;;;;;;;;4996717;28;21368;-83
2023/01/29 15:17:17;;;;;;;22.37;20.07;;;;;;;;;;4979554;28;20221;-81